sensor_id;sensor_type;location;lat;lon;timestamp;pressure;altitude;pressure_sealevel;temperature;humidity
37852;BME280;23691;52.486;4.650;2023-05-15T00:01:05;101660.00;;;12.66;70.88
37852;BME280;23691;52.486;4.650;2023-05-15T00:03:30;101660.84;;;12.67;70.87
37852;BME280;23691;52.486;4.650;2023-05-15T00:05:56;101656.63;;;12.64;71.03
37852;BME280;23691;52.486;4.650;2023-05-15T00:08:21;101658.31;;;12.65;70.99
37852;BME280;23691;52.486;4.650;2023-05-15T00:10:47;101660.31;;;12.63;71.03
37852;BME280;23691;52.486;4.650;2023-05-15T00:13:12;101660.63;;;12.60;70.95
37852;BME280;23691;52.486;4.650;2023-05-15T00:15:38;101656.44;;;12.58;71.21
37852;BME280;23691;52.486;4.650;2023-05-15T00:18:03;101659.25;;;12.56;71.21
37852;BME280;23691;52.486;4.650;2023-05-15T00:20:28;101656.03;;;12.53;71.00
37852;BME280;23691;52.486;4.650;2023-05-15T00:22:54;101648.31;;;12.50;71.11
37852;BME280;23691;52.486;4.650;2023-05-15T00:25:19;101650.63;;;12.44;71.14
37852;BME280;23691;52.486;4.650;2023-05-15T00:27:45;101647.25;;;12.42;71.20
37852;BME280;23691;52.486;4.650;2023-05-15T00:30:11;101651.94;;;12.40;71.13
37852;BME280;23691;52.486;4.650;2023-05-15T00:32:37;101646.72;;;12.39;71.05
37852;BME280;23691;52.486;4.650;2023-05-15T00:35:03;101642.34;;;12.38;71.15
37852;BME280;23691;52.486;4.650;2023-05-15T00:37:29;101633.31;;;12.39;71.10
37852;BME280;23691;52.486;4.650;2023-05-15T00:39:54;101637.84;;;12.38;71.17
37852;BME280;23691;52.486;4.650;2023-05-15T00:42:21;101633.31;;;12.39;71.51
37852;BME280;23691;52.486;4.650;2023-05-15T00:44:48;101636.00;;;12.39;71.55
37852;BME280;23691;52.486;4.650;2023-05-15T00:47:14;101633.31;;;12.39;71.44
37852;BME280;23691;52.486;4.650;2023-05-15T00:49:40;101640.22;;;12.41;71.65
37852;BME280;23691;52.486;4.650;2023-05-15T00:52:06;101633.53;;;12.45;71.86
37852;BME280;23691;52.486;4.650;2023-05-15T00:54:33;101629.69;;;12.48;71.80
37852;BME280;23691;52.486;4.650;2023-05-15T00:56:59;101637.56;;;12.50;72.02
37852;BME280;23691;52.486;4.650;2023-05-15T00:59:27;101622.63;;;12.47;72.13
37852;BME280;23691;52.486;4.650;2023-05-15T01:01:54;101617.59;;;12.44;72.67
37852;BME280;23691;52.486;4.650;2023-05-15T01:04:20;101617.44;;;12.45;73.14
37852;BME280;23691;52.486;4.650;2023-05-15T01:06:45;101619.94;;;12.47;73.28
37852;BME280;23691;52.486;4.650;2023-05-15T01:09:12;101618.47;;;12.53;73.26
37852;BME280;23691;52.486;4.650;2023-05-15T01:11:40;101617.47;;;12.54;73.47
37852;BME280;23691;52.486;4.650;2023-05-15T01:14:07;101611.28;;;12.53;73.37
37852;BME280;23691;52.486;4.650;2023-05-15T01:16:33;101594.00;;;12.56;73.64
37852;BME280;23691;52.486;4.650;2023-05-15T01:18:59;101597.19;;;12.59;73.56
37852;BME280;23691;52.486;4.650;2023-05-15T01:24:32;101602.41;;;12.61;73.70
37852;BME280;23691;52.486;4.650;2023-05-15T01:32:54;101592.13;;;12.48;73.58
37852;BME280;23691;52.486;4.650;2023-05-15T01:35:31;101603.66;;;12.40;73.73
37852;BME280;23691;52.486;4.650;2023-05-15T01:40:43;101610.66;;;12.33;73.67
37852;BME280;23691;52.486;4.650;2023-05-15T01:43:17;101614.31;;;12.32;73.69
37852;BME280;23691;52.486;4.650;2023-05-15T01:45:43;101628.03;;;12.29;73.79
37852;BME280;23691;52.486;4.650;2023-05-15T01:48:09;101624.81;;;12.25;73.77
37852;BME280;23691;52.486;4.650;2023-05-15T01:50:37;101621.75;;;12.20;73.86
37852;BME280;23691;52.486;4.650;2023-05-15T01:53:06;101630.13;;;12.17;73.88
37852;BME280;23691;52.486;4.650;2023-05-15T01:55:32;101629.44;;;12.15;74.26
37852;BME280;23691;52.486;4.650;2023-05-15T01:58:00;101621.56;;;12.14;74.55
37852;BME280;23691;52.486;4.650;2023-05-15T02:00:27;101631.28;;;12.15;74.75
37852;BME280;23691;52.486;4.650;2023-05-15T02:02:53;101627.63;;;12.16;74.85
37852;BME280;23691;52.486;4.650;2023-05-15T02:05:18;101627.63;;;12.16;75.21
37852;BME280;23691;52.486;4.650;2023-05-15T02:07:44;101624.06;;;12.15;75.49
37852;BME280;23691;52.486;4.650;2023-05-15T02:10:11;101624.63;;;12.19;75.58
37852;BME280;23691;52.486;4.650;2023-05-15T02:12:39;101625.81;;;12.24;75.48
37852;BME280;23691;52.486;4.650;2023-05-15T02:15:06;101614.59;;;12.21;75.53
37852;BME280;23691;52.486;4.650;2023-05-15T02:17:33;101616.41;;;12.20;75.89
37852;BME280;23691;52.486;4.650;2023-05-15T02:19:58;101610.88;;;12.22;75.89
37852;BME280;23691;52.486;4.650;2023-05-15T02:22:24;101603.53;;;12.24;75.74
37852;BME280;23691;52.486;4.650;2023-05-15T02:24:49;101601.69;;;12.24;75.78
37852;BME280;23691;52.486;4.650;2023-05-15T02:27:26;101597.97;;;12.25;75.78
37852;BME280;23691;52.486;4.650;2023-05-15T02:37:42;101584.38;;;12.19;75.65
37852;BME280;23691;52.486;4.650;2023-05-15T02:40:10;101574.94;;;12.15;75.57
37852;BME280;23691;52.486;4.650;2023-05-15T02:42:36;101586.38;;;12.17;75.76
37852;BME280;23691;52.486;4.650;2023-05-15T02:45:04;101579.84;;;12.19;75.47
37852;BME280;23691;52.486;4.650;2023-05-15T02:47:32;101587.75;;;12.21;75.46
37852;BME280;23691;52.486;4.650;2023-05-15T02:49:58;101595.63;;;12.22;75.28
37852;BME280;23691;52.486;4.650;2023-05-15T02:52:24;101593.94;;;12.21;75.14
37852;BME280;23691;52.486;4.650;2023-05-15T02:54:49;101594.66;;;12.23;75.10
37852;BME280;23691;52.486;4.650;2023-05-15T02:57:15;101598.13;;;12.16;75.06
37852;BME280;23691;52.486;4.650;2023-05-15T02:59:40;101596.03;;;12.10;75.30
37852;BME280;23691;52.486;4.650;2023-05-15T03:02:06;101589.94;;;11.99;75.36
37852;BME280;23691;52.486;4.650;2023-05-15T03:04:31;101597.75;;;11.93;75.63
37852;BME280;23691;52.486;4.650;2023-05-15T03:06:59;101595.53;;;11.88;75.66
37852;BME280;23691;52.486;4.650;2023-05-15T03:09:25;101594.13;;;11.84;75.75
37852;BME280;23691;52.486;4.650;2023-05-15T03:11:50;101597.47;;;11.86;75.83
37852;BME280;23691;52.486;4.650;2023-05-15T03:14:16;101599.50;;;11.84;75.93
37852;BME280;23691;52.486;4.650;2023-05-15T03:16:41;101593.75;;;11.79;76.15
37852;BME280;23691;52.486;4.650;2023-05-15T03:19:06;101597.19;;;11.71;76.32
37852;BME280;23691;52.486;4.650;2023-05-15T03:21:32;101589.31;;;11.70;76.59
37852;BME280;23691;52.486;4.650;2023-05-15T03:23:59;101605.09;;;11.73;76.48
37852;BME280;23691;52.486;4.650;2023-05-15T03:26:24;101596.03;;;11.74;76.56
37852;BME280;23691;52.486;4.650;2023-05-15T03:28:50;101600.09;;;11.78;76.46
37852;BME280;23691;52.486;4.650;2023-05-15T03:31:15;101605.00;;;11.82;76.32
37852;BME280;23691;52.486;4.650;2023-05-15T03:33:41;101602.47;;;11.81;76.00
37852;BME280;23691;52.486;4.650;2023-05-15T03:36:07;101616.88;;;11.80;76.46
37852;BME280;23691;52.486;4.650;2023-05-15T03:38:32;101610.13;;;11.76;76.51
37852;BME280;23691;52.486;4.650;2023-05-15T03:40:58;101610.44;;;11.73;76.60
37852;BME280;23691;52.486;4.650;2023-05-15T03:43:23;101603.03;;;11.67;76.68
37852;BME280;23691;52.486;4.650;2023-05-15T03:45:49;101598.66;;;11.66;76.73
37852;BME280;23691;52.486;4.650;2023-05-15T03:48:14;101596.28;;;11.63;76.84
37852;BME280;23691;52.486;4.650;2023-05-15T03:50:40;101597.13;;;11.63;77.11
37852;BME280;23691;52.486;4.650;2023-05-15T03:53:05;101592.31;;;11.67;77.09
37852;BME280;23691;52.486;4.650;2023-05-15T03:55:31;101587.47;;;11.70;76.79
37852;BME280;23691;52.486;4.650;2023-05-15T03:57:57;101588.16;;;11.72;76.85
37852;BME280;23691;52.486;4.650;2023-05-15T04:00:22;101594.91;;;11.76;76.92
37852;BME280;23691;52.486;4.650;2023-05-15T04:02:48;101587.53;;;11.78;76.84
37852;BME280;23691;52.486;4.650;2023-05-15T04:05:14;101590.22;;;11.78;76.92
37852;BME280;23691;52.486;4.650;2023-05-15T04:07:39;101584.72;;;11.80;76.81
37852;BME280;23691;52.486;4.650;2023-05-15T04:10:05;101588.09;;;11.82;77.01
37852;BME280;23691;52.486;4.650;2023-05-15T04:12:32;101591.75;;;11.81;76.87
37852;BME280;23691;52.486;4.650;2023-05-15T04:15:12;101593.75;;;11.79;77.07
37852;BME280;23691;52.486;4.650;2023-05-15T04:17:38;101586.38;;;11.81;77.22
37852;BME280;23691;52.486;4.650;2023-05-15T04:20:04;101592.84;;;11.88;77.01
37852;BME280;23691;52.486;4.650;2023-05-15T04:22:30;101580.69;;;11.94;76.80
37852;BME280;23691;52.486;4.650;2023-05-15T04:24:56;101589.69;;;11.93;76.80
37852;BME280;23691;52.486;4.650;2023-05-15T04:27:21;101590.41;;;11.95;76.83
37852;BME280;23691;52.486;4.650;2023-05-15T04:29:46;101595.06;;;11.93;77.00
37852;BME280;23691;52.486;4.650;2023-05-15T04:32:12;101589.56;;;11.94;77.22
37852;BME280;23691;52.486;4.650;2023-05-15T04:34:37;101588.41;;;11.97;77.19
37852;BME280;23691;52.486;4.650;2023-05-15T04:37:03;101588.91;;;12.00;77.11
37852;BME280;23691;52.486;4.650;2023-05-15T04:39:29;101583.56;;;12.00;77.66
37852;BME280;23691;52.486;4.650;2023-05-15T04:41:54;101578.06;;;12.02;77.45
37852;BME280;23691;52.486;4.650;2023-05-15T04:44:19;101578.56;;;12.06;77.44
37852;BME280;23691;52.486;4.650;2023-05-15T04:46:45;101573.88;;;12.08;77.49
37852;BME280;23691;52.486;4.650;2023-05-15T04:49:10;101582.94;;;12.07;77.24
37852;BME280;23691;52.486;4.650;2023-05-15T04:51:35;101580.78;;;12.10;77.47
37852;BME280;23691;52.486;4.650;2023-05-15T04:54:01;101578.09;;;12.10;77.43
37852;BME280;23691;52.486;4.650;2023-05-15T04:56:26;101581.16;;;12.15;77.37
37852;BME280;23691;52.486;4.650;2023-05-15T04:58:52;101583.84;;;12.15;77.40
37852;BME280;23691;52.486;4.650;2023-05-15T05:01:17;101581.69;;;12.19;77.38
37852;BME280;23691;52.486;4.650;2023-05-15T05:03:42;101580.88;;;12.18;77.34
37852;BME280;23691;52.486;4.650;2023-05-15T05:06:08;101583.53;;;12.18;77.61
37852;BME280;23691;52.486;4.650;2023-05-15T05:08:33;101580.00;;;12.18;77.55
37852;BME280;23691;52.486;4.650;2023-05-15T05:10:58;101582.03;;;12.16;77.58
37852;BME280;23691;52.486;4.650;2023-05-15T05:13:24;101575.63;;;12.17;77.55
37852;BME280;23691;52.486;4.650;2023-05-15T05:15:49;101573.09;;;12.15;77.76
37852;BME280;23691;52.486;4.650;2023-05-15T05:18:14;101576.94;;;12.13;77.79
37852;BME280;23691;52.486;4.650;2023-05-15T05:20:40;101581.16;;;12.15;77.87
37852;BME280;23691;52.486;4.650;2023-05-15T05:23:05;101573.09;;;12.15;77.94
37852;BME280;23691;52.486;4.650;2023-05-15T05:25:30;101577.53;;;12.24;78.01
37852;BME280;23691;52.486;4.650;2023-05-15T05:27:56;101574.06;;;12.32;77.95
37852;BME280;23691;52.486;4.650;2023-05-15T05:30:21;101561.47;;;12.33;77.84
37852;BME280;23691;52.486;4.650;2023-05-15T05:32:46;101555.63;;;12.37;77.97
37852;BME280;23691;52.486;4.650;2023-05-15T05:35:12;101563.09;;;12.52;77.83
37852;BME280;23691;52.486;4.650;2023-05-15T05:37:37;101565.47;;;12.55;77.90
37852;BME280;23691;52.486;4.650;2023-05-15T05:40:03;101567.16;;;12.56;78.06
37852;BME280;23691;52.486;4.650;2023-05-15T05:42:30;101563.69;;;12.63;77.83
37852;BME280;23691;52.486;4.650;2023-05-15T05:44:55;101562.03;;;12.71;77.79
37852;BME280;23691;52.486;4.650;2023-05-15T05:47:21;101566.75;;;12.77;77.55
37852;BME280;23691;52.486;4.650;2023-05-15T05:49:46;101569.28;;;12.78;77.52
37852;BME280;23691;52.486;4.650;2023-05-15T05:52:12;101565.28;;;12.82;77.50
37852;BME280;23691;52.486;4.650;2023-05-15T05:54:37;101551.03;;;12.90;77.46
37852;BME280;23691;52.486;4.650;2023-05-15T05:57:03;101549.19;;;12.99;77.27
37852;BME280;23691;52.486;4.650;2023-05-15T05:59:28;101548.22;;;13.08;77.02
37852;BME280;23691;52.486;4.650;2023-05-15T06:01:54;101552.28;;;13.20;76.80
37852;BME280;23691;52.486;4.650;2023-05-15T06:04:20;101553.16;;;13.29;76.88
37852;BME280;23691;52.486;4.650;2023-05-15T06:06:45;101556.56;;;13.39;76.64
37852;BME280;23691;52.486;4.650;2023-05-15T06:09:11;101556.72;;;13.46;76.37
37852;BME280;23691;52.486;4.650;2023-05-15T06:11:36;101563.63;;;13.48;76.49
37852;BME280;23691;52.486;4.650;2023-05-15T06:14:01;101562.44;;;13.51;76.49
37852;BME280;23691;52.486;4.650;2023-05-15T06:16:27;101557.94;;;13.60;76.33
37852;BME280;23691;52.486;4.650;2023-05-15T06:18:52;101564.81;;;13.70;76.00
37852;BME280;23691;52.486;4.650;2023-05-15T06:21:17;101565.16;;;13.67;76.08
37852;BME280;23691;52.486;4.650;2023-05-15T06:23:43;101562.81;;;13.72;76.05
37852;BME280;23691;52.486;4.650;2023-05-15T06:26:08;101565.31;;;13.82;75.69
37852;BME280;23691;52.486;4.650;2023-05-15T06:28:34;101556.75;;;13.95;75.48
37852;BME280;23691;52.486;4.650;2023-05-15T06:30:59;101569.69;;;14.08;74.95
37852;BME280;23691;52.486;4.650;2023-05-15T06:33:24;101570.88;;;14.13;74.83
37852;BME280;23691;52.486;4.650;2023-05-15T06:35:50;101564.66;;;14.13;75.07
37852;BME280;23691;52.486;4.650;2023-05-15T06:38:15;101569.16;;;14.29;74.93
37852;BME280;23691;52.486;4.650;2023-05-15T06:40:40;101562.03;;;14.44;74.38
37852;BME280;23691;52.486;4.650;2023-05-15T06:43:06;101564.22;;;14.65;73.88
37852;BME280;23691;52.486;4.650;2023-05-15T06:45:31;101571.16;;;14.91;73.91
37852;BME280;23691;52.486;4.650;2023-05-15T06:47:56;101558.06;;;15.19;73.08
37852;BME280;23691;52.486;4.650;2023-05-15T06:50:22;101563.16;;;15.14;72.78
37852;BME280;23691;52.486;4.650;2023-05-15T06:52:47;101557.78;;;15.06;72.81
37852;BME280;23691;52.486;4.650;2023-05-15T06:55:12;101567.44;;;15.00;72.91
37852;BME280;23691;52.486;4.650;2023-05-15T06:57:38;101568.78;;;15.04;72.67
37852;BME280;23691;52.486;4.650;2023-05-15T07:00:04;101567.69;;;15.13;71.89
37852;BME280;23691;52.486;4.650;2023-05-15T07:02:31;101570.53;;;15.20;72.16
37852;BME280;23691;52.486;4.650;2023-05-15T07:04:57;101571.25;;;15.14;71.48
37852;BME280;23691;52.486;4.650;2023-05-15T07:07:22;101580.03;;;15.08;72.16
37852;BME280;23691;52.486;4.650;2023-05-15T07:09:47;101585.09;;;15.02;71.79
37852;BME280;23691;52.486;4.650;2023-05-15T07:12:14;101576.56;;;14.91;71.88
37852;BME280;23691;52.486;4.650;2023-05-15T07:14:39;101573.19;;;14.89;71.60
37852;BME280;23691;52.486;4.650;2023-05-15T07:17:05;101577.44;;;14.83;71.63
37852;BME280;23691;52.486;4.650;2023-05-15T07:19:30;101579.66;;;14.79;71.63
37852;BME280;23691;52.486;4.650;2023-05-15T07:21:56;101577.47;;;14.75;71.69
37852;BME280;23691;52.486;4.650;2023-05-15T07:24:21;101580.16;;;14.75;71.44
37852;BME280;23691;52.486;4.650;2023-05-15T07:26:46;101570.38;;;14.74;71.42
37852;BME280;23691;52.486;4.650;2023-05-15T07:29:12;101567.38;;;14.77;71.27
37852;BME280;23691;52.486;4.650;2023-05-15T07:31:37;101576.09;;;14.79;70.97
37852;BME280;23691;52.486;4.650;2023-05-15T07:34:04;101572.22;;;14.81;71.09
37852;BME280;23691;52.486;4.650;2023-05-15T07:36:29;101576.44;;;14.84;70.96
37852;BME280;23691;52.486;4.650;2023-05-15T07:38:55;101572.22;;;14.81;70.81
37852;BME280;23691;52.486;4.650;2023-05-15T07:41:21;101576.59;;;14.82;70.81
37852;BME280;23691;52.486;4.650;2023-05-15T07:43:46;101573.91;;;14.82;70.88
37852;BME280;23691;52.486;4.650;2023-05-15T07:46:12;101580.78;;;14.85;70.68
37852;BME280;23691;52.486;4.650;2023-05-15T07:48:37;101575.72;;;14.90;70.59
37852;BME280;23691;52.486;4.650;2023-05-15T07:51:02;101580.63;;;14.87;70.56
37852;BME280;23691;52.486;4.650;2023-05-15T07:53:28;101575.06;;;14.88;70.74
37852;BME280;23691;52.486;4.650;2023-05-15T07:55:53;101573.88;;;14.91;70.67
37852;BME280;23691;52.486;4.650;2023-05-15T07:58:19;101580.09;;;14.91;70.47
37852;BME280;23691;52.486;4.650;2023-05-15T08:00:44;101584.13;;;14.95;70.62
37852;BME280;23691;52.486;4.650;2023-05-15T08:03:10;101585.34;;;14.85;70.90
37852;BME280;23691;52.486;4.650;2023-05-15T08:05:35;101580.50;;;14.80;71.19
37852;BME280;23691;52.486;4.650;2023-05-15T08:08:00;101576.66;;;14.74;71.16
37852;BME280;23691;52.486;4.650;2023-05-15T08:10:26;101581.00;;;14.75;71.04
37852;BME280;23691;52.486;4.650;2023-05-15T08:12:51;101586.22;;;14.77;71.19
37852;BME280;23691;52.486;4.650;2023-05-15T08:15:16;101578.16;;;14.77;71.02
37852;BME280;23691;52.486;4.650;2023-05-15T08:17:42;101593.13;;;14.79;71.20
37852;BME280;23691;52.486;4.650;2023-05-15T08:20:08;101583.34;;;14.78;70.86
37852;BME280;23691;52.486;4.650;2023-05-15T08:22:33;101581.31;;;14.80;71.02
37852;BME280;23691;52.486;4.650;2023-05-15T08:24:59;101588.38;;;14.81;71.16
37852;BME280;23691;52.486;4.650;2023-05-15T08:27:25;101581.16;;;14.82;71.00
37852;BME280;23691;52.486;4.650;2023-05-15T08:29:51;101587.38;;;14.82;71.25
37852;BME280;23691;52.486;4.650;2023-05-15T08:32:17;101577.75;;;14.88;71.39
37852;BME280;23691;52.486;4.650;2023-05-15T08:34:42;101576.41;;;14.92;71.16
37852;BME280;23691;52.486;4.650;2023-05-15T08:37:08;101572.97;;;14.98;71.15
37852;BME280;23691;52.486;4.650;2023-05-15T08:39:33;101583.91;;;15.05;71.36
37852;BME280;23691;52.486;4.650;2023-05-15T08:42:09;101579.19;;;15.07;70.96
37852;BME280;23691;52.486;4.650;2023-05-15T08:44:35;101576.66;;;15.06;70.93
37852;BME280;23691;52.486;4.650;2023-05-15T08:47:01;101577.50;;;15.06;70.82
37852;BME280;23691;52.486;4.650;2023-05-15T08:52:19;101587.97;;;15.01;71.01
37852;BME280;23691;52.486;4.650;2023-05-15T08:54:44;101594.06;;;14.95;71.09
37852;BME280;23691;52.486;4.650;2023-05-15T08:57:12;101585.66;;;14.90;71.21
37852;BME280;23691;52.486;4.650;2023-05-15T08:59:37;101589.03;;;14.92;71.42
37852;BME280;23691;52.486;4.650;2023-05-15T09:02:03;101590.84;;;14.91;71.27
37852;BME280;23691;52.486;4.650;2023-05-15T09:04:28;101596.81;;;14.87;71.65
37852;BME280;23691;52.486;4.650;2023-05-15T09:06:54;101593.59;;;14.83;71.57
37852;BME280;23691;52.486;4.650;2023-05-15T09:09:22;101594.44;;;14.84;71.93
37852;BME280;23691;52.486;4.650;2023-05-15T09:11:49;101588.22;;;14.83;71.68
37852;BME280;23691;52.486;4.650;2023-05-15T09:14:14;101595.59;;;14.89;71.73
37852;BME280;23691;52.486;4.650;2023-05-15T09:16:40;101596.75;;;14.95;71.51
37852;BME280;23691;52.486;4.650;2023-05-15T09:19:06;101603.34;;;14.92;71.88
37852;BME280;23691;52.486;4.650;2023-05-15T09:21:31;101599.50;;;14.87;71.98
37852;BME280;23691;52.486;4.650;2023-05-15T09:24:20;101604.03;;;14.86;72.16
37852;BME280;23691;52.486;4.650;2023-05-15T09:27:01;101606.56;;;14.88;72.27
37852;BME280;23691;52.486;4.650;2023-05-15T09:29:30;101607.91;;;14.92;72.01
37852;BME280;23691;52.486;4.650;2023-05-15T09:31:56;101601.00;;;14.89;72.00
37852;BME280;23691;52.486;4.650;2023-05-15T09:34:34;101607.03;;;14.91;71.76
37852;BME280;23691;52.486;4.650;2023-05-15T09:37:02;101605.50;;;14.97;72.02
37852;BME280;23691;52.486;4.650;2023-05-15T09:39:28;101606.00;;;15.00;71.99
37852;BME280;23691;52.486;4.650;2023-05-15T09:42:04;101602.41;;;15.08;71.56
37852;BME280;23691;52.486;4.650;2023-05-15T09:44:30;101597.41;;;15.28;71.17
37852;BME280;23691;52.486;4.650;2023-05-15T09:46:56;101591.81;;;15.38;71.28
37852;BME280;23691;52.486;4.650;2023-05-15T09:49:21;101593.06;;;15.50;71.00
37852;BME280;23691;52.486;4.650;2023-05-15T09:51:47;101589.94;;;15.70;70.78
37852;BME280;23691;52.486;4.650;2023-05-15T09:54:16;101585.56;;;15.92;70.40
37852;BME280;23691;52.486;4.650;2023-05-15T09:56:46;101591.47;;;16.10;69.54
37852;BME280;23691;52.486;4.650;2023-05-15T09:59:16;101595.03;;;16.25;69.46
37852;BME280;23691;52.486;4.650;2023-05-15T10:01:43;101604.47;;;16.44;68.69
37852;BME280;23691;52.486;4.650;2023-05-15T10:04:10;101598.53;;;16.64;68.13
37852;BME280;23691;52.486;4.650;2023-05-15T10:06:36;101596.56;;;16.72;67.61
37852;BME280;23691;52.486;4.650;2023-05-15T10:09:02;101593.88;;;17.02;67.10
37852;BME280;23691;52.486;4.650;2023-05-15T10:11:36;101596.59;;;17.38;66.33
37852;BME280;23691;52.486;4.650;2023-05-15T10:14:04;101595.50;;;17.33;66.07
37852;BME280;23691;52.486;4.650;2023-05-15T10:16:32;101598.59;;;17.15;66.35
37852;BME280;23691;52.486;4.650;2023-05-15T10:19:00;101597.91;;;16.91;66.30
37852;BME280;23691;52.486;4.650;2023-05-15T10:21:27;101601.34;;;16.85;66.28
37852;BME280;23691;52.486;4.650;2023-05-15T10:23:58;101597.25;;;16.89;65.97
37852;BME280;23691;52.486;4.650;2023-05-15T10:26:32;101599.00;;;16.82;65.83
37852;BME280;23691;52.486;4.650;2023-05-15T10:28:59;101602.94;;;16.80;65.80
37852;BME280;23691;52.486;4.650;2023-05-15T10:31:25;101600.31;;;16.86;66.09
37852;BME280;23691;52.486;4.650;2023-05-15T10:33:50;101601.03;;;16.95;65.79
37852;BME280;23691;52.486;4.650;2023-05-15T10:36:18;101596.84;;;16.78;65.98
37852;BME280;23691;52.486;4.650;2023-05-15T10:38:44;101603.84;;;16.57;66.24
37852;BME280;23691;52.486;4.650;2023-05-15T10:41:11;101604.28;;;16.61;66.05
37852;BME280;23691;52.486;4.650;2023-05-15T10:43:39;101599.41;;;16.79;65.52
37852;BME280;23691;52.486;4.650;2023-05-15T10:46:06;101605.97;;;16.77;65.82
37852;BME280;23691;52.486;4.650;2023-05-15T10:48:32;101614.09;;;16.62;66.00
37852;BME280;23691;52.486;4.650;2023-05-15T10:51:01;101608.56;;;16.55;66.43
37852;BME280;23691;52.486;4.650;2023-05-15T10:53:26;101610.44;;;16.55;66.05
37852;BME280;23691;52.486;4.650;2023-05-15T10:55:52;101607.63;;;16.48;66.58
37852;BME280;23691;52.486;4.650;2023-05-15T10:58:21;101601.19;;;16.49;66.37
37852;BME280;23691;52.486;4.650;2023-05-15T11:00:47;101604.47;;;16.44;66.55
37852;BME280;23691;52.486;4.650;2023-05-15T11:03:13;101618.41;;;16.33;66.65
37852;BME280;23691;52.486;4.650;2023-05-15T11:06:07;101606.13;;;16.30;66.63
37852;BME280;23691;52.486;4.650;2023-05-15T11:08:38;101598.00;;;16.16;66.80
37852;BME280;23691;52.486;4.650;2023-05-15T11:11:04;101598.13;;;15.99;67.22
37852;BME280;23691;52.486;4.650;2023-05-15T11:27:37;101604.56;;;15.98;67.94
37852;BME280;23691;52.486;4.650;2023-05-15T11:37:52;101600.13;;;16.05;67.80
37852;BME280;23691;52.486;4.650;2023-05-15T11:40:23;101601.72;;;16.15;67.90
37852;BME280;23691;52.486;4.650;2023-05-15T11:45:31;101598.22;;;16.59;66.47
37852;BME280;23691;52.486;4.650;2023-05-15T11:48:00;101594.34;;;16.76;66.28
37852;BME280;23691;52.486;4.650;2023-05-15T11:50:26;101600.06;;;16.81;65.98
37852;BME280;23691;52.486;4.650;2023-05-15T11:52:52;101604.25;;;16.84;65.58
37852;BME280;23691;52.486;4.650;2023-05-15T11:55:18;101616.22;;;16.66;65.47
37852;BME280;23691;52.486;4.650;2023-05-15T11:57:45;101605.50;;;16.58;65.64
37852;BME280;23691;52.486;4.650;2023-05-15T12:00:11;101609.69;;;16.61;65.61
37852;BME280;23691;52.486;4.650;2023-05-15T12:02:37;101601.84;;;16.51;65.87
37852;BME280;23691;52.486;4.650;2023-05-15T12:05:05;101608.38;;;16.42;65.74
37852;BME280;23691;52.486;4.650;2023-05-15T12:07:35;101611.16;;;16.34;66.28
37852;BME280;23691;52.486;4.650;2023-05-15T12:10:01;101608.63;;;16.17;66.51
37852;BME280;23691;52.486;4.650;2023-05-15T12:12:27;101610.25;;;16.03;66.94
37852;BME280;23691;52.486;4.650;2023-05-15T12:14:56;101611.28;;;16.02;66.88
37852;BME280;23691;52.486;4.650;2023-05-15T12:17:26;101608.72;;;16.24;66.15
37852;BME280;23691;52.486;4.650;2023-05-15T12:19:51;101606.28;;;16.29;66.03
37852;BME280;23691;52.486;4.650;2023-05-15T12:22:17;101612.06;;;16.26;66.11
37852;BME280;23691;52.486;4.650;2023-05-15T12:24:43;101608.34;;;16.12;66.07
37852;BME280;23691;52.486;4.650;2023-05-15T12:27:10;101612.84;;;15.97;66.33
37852;BME280;23691;52.486;4.650;2023-05-15T12:29:36;101613.03;;;15.95;66.45
37852;BME280;23691;52.486;4.650;2023-05-15T12:32:03;101609.38;;;15.88;66.83
37852;BME280;23691;52.486;4.650;2023-05-15T12:34:29;101621.72;;;15.82;66.75
37852;BME280;23691;52.486;4.650;2023-05-15T12:36:54;101617.22;;;15.75;66.93
37852;BME280;23691;52.486;4.650;2023-05-15T12:39:20;101611.34;;;15.71;67.01
37852;BME280;23691;52.486;4.650;2023-05-15T12:41:45;101610.34;;;15.64;67.42
37852;BME280;23691;52.486;4.650;2023-05-15T12:44:17;101614.78;;;15.57;67.55
37852;BME280;23691;52.486;4.650;2023-05-15T12:46:42;101618.53;;;15.48;67.65
37852;BME280;23691;52.486;4.650;2023-05-15T12:49:07;101621.25;;;15.48;68.03
37852;BME280;23691;52.486;4.650;2023-05-15T12:51:41;101617.03;;;15.45;67.83
37852;BME280;23691;52.486;4.650;2023-05-15T12:54:18;101627.31;;;15.50;67.79
37852;BME280;23691;52.486;4.650;2023-05-15T12:56:46;101632.78;;;15.64;67.46
37852;BME280;23691;52.486;4.650;2023-05-15T12:59:11;101631.97;;;15.87;67.21
37852;BME280;23691;52.486;4.650;2023-05-15T13:01:36;101634.09;;;16.00;66.93
37852;BME280;23691;52.486;4.650;2023-05-15T13:04:02;101630.97;;;15.88;67.20
37852;BME280;23691;52.486;4.650;2023-05-15T13:06:28;101631.97;;;15.87;67.01
37852;BME280;23691;52.486;4.650;2023-05-15T13:08:53;101634.72;;;15.79;67.34
37852;BME280;23691;52.486;4.650;2023-05-15T13:11:19;101636.97;;;15.75;67.10
37852;BME280;23691;52.486;4.650;2023-05-15T13:13:47;101632.34;;;15.84;67.25
37852;BME280;23691;52.486;4.650;2023-05-15T13:16:25;101629.81;;;15.82;67.24
37852;BME280;23691;52.486;4.650;2023-05-15T13:18:54;101630.91;;;15.73;67.17
37852;BME280;23691;52.486;4.650;2023-05-15T13:21:21;101640.34;;;15.69;67.12
37852;BME280;23691;52.486;4.650;2023-05-15T13:23:46;101633.22;;;15.76;66.87
37852;BME280;23691;52.486;4.650;2023-05-15T13:26:11;101646.06;;;15.74;66.91
37852;BME280;23691;52.486;4.650;2023-05-15T13:28:37;101635.41;;;15.81;66.48
37852;BME280;23691;52.486;4.650;2023-05-15T13:31:02;101629.69;;;15.76;66.76
37852;BME280;23691;52.486;4.650;2023-05-15T13:33:28;101626.38;;;15.65;66.79